CYMM

Fort McMurray International Airport

Airport
ICAO code
CYMM
IATA Code
YMM
Summary
ICAO Region
NAM
ICAO Territory
Location

Fort McMurray, Alberta

Serving
Regional Municipality of Wood Buffalo
Elevation
1211 ft
Coordinates
56° 38' 57" N , 111° 13' 48" W
Metar
Observation
CYMM 091800Z AUTO 10004KT 9SM BKN100 M14/M16 A2963 RMK SLP069
Station
Fort Mcmurray, Alta.
Date/Time
2022-12-09 18:00:00
Wind direction
100°
Wind speed
04 kts
Lowest cloud amount
broken clouds
Temperature
-14°C
Dew point
-16°C
Humidity
84%
Weather condition
n/a

Fort McMurray International Airport is located 13 km southeast of Fort McMurray, Alberta, Canada.

Runways

Designator Length Width Surface Rops
7/25 2287 46 ASP Yes/Yes

Airport map

Aerial View

SKYbrary Partners:

Safety knowledge contributed by: